createdAt,value
2022-12-16T00:00:28.485Z,8.20
2022-12-16T00:03:01.833Z,7.70
2022-12-16T00:05:33.837Z,8.75
2022-12-16T00:08:06.036Z,7.65
2022-12-16T00:10:53.126Z,8.60
2022-12-16T00:13:28.831Z,7.60
2022-12-16T00:16:08.380Z,7.97
2022-12-16T00:18:41.288Z,7.53
2022-12-16T00:21:13.453Z,8.68
2022-12-16T00:23:45.781Z,10.75
2022-12-16T00:26:17.746Z,8.23
2022-12-16T00:28:49.707Z,8.68
2022-12-16T00:31:23.906Z,10.07
2022-12-16T00:33:57.420Z,9.23
2022-12-16T00:36:29.283Z,9.57
2022-12-16T00:39:01.378Z,8.82
2022-12-16T00:41:33.340Z,10.88
2022-12-16T00:44:05.564Z,8.18
2022-12-16T00:46:37.473Z,8.75
2022-12-16T00:49:09.499Z,7.38
2022-12-16T00:51:41.445Z,8.27
2022-12-16T00:54:13.374Z,8.10
2022-12-16T00:56:45.240Z,9.85
2022-12-16T00:59:17.086Z,8.63
2022-12-16T01:01:49.122Z,8.63
2022-12-16T01:04:21.225Z,7.57
2022-12-16T01:06:54.671Z,6.60
2022-12-16T01:09:27.321Z,7.20
2022-12-16T01:11:59.291Z,7.75
2022-12-16T01:14:31.168Z,7.70
2022-12-16T01:17:03.104Z,6.97
2022-12-16T01:19:35.030Z,7.57
2022-12-16T01:22:07.055Z,7.40
2022-12-16T01:24:38.985Z,6.35
2022-12-16T01:27:11.614Z,6.80
2022-12-16T01:29:43.550Z,6.57
2022-12-16T01:32:16.052Z,6.65
2022-12-16T01:34:55.109Z,7.10
2022-12-16T01:37:27.513Z,6.47
2022-12-16T01:39:59.329Z,6.78
2022-12-16T01:42:33.563Z,6.55
2022-12-16T01:45:30.254Z,6.35
2022-12-16T01:48:21.374Z,6.43
2022-12-16T01:50:57.160Z,5.50
2022-12-16T01:53:30.672Z,7.25
2022-12-16T01:56:04.052Z,8.52
2022-12-16T01:58:38.869Z,7.65
2022-12-16T02:01:10.990Z,7.85
2022-12-16T02:03:43.820Z,7.50
2022-12-16T02:06:15.785Z,6.35
2022-12-16T02:08:55.320Z,6.80
2022-12-16T02:14:55.290Z,7.47
2022-12-16T02:17:57.104Z,6.75
2022-12-16T02:23:18.721Z,6.60
2022-12-16T02:26:09.115Z,7.05
2022-12-16T02:29:04.756Z,6.90
2022-12-16T02:31:36.589Z,6.20
2022-12-16T02:34:39.207Z,6.53
2022-12-16T02:37:36.226Z,7.25
2022-12-16T02:40:43.378Z,6.50
2022-12-16T02:46:27.544Z,6.88
2022-12-16T02:49:31.289Z,6.82
2022-12-16T02:52:03.213Z,6.57
2022-12-16T02:54:35.273Z,6.00
2022-12-16T02:57:22.212Z,5.70
2022-12-16T03:00:02.502Z,6.78
2022-12-16T03:02:56.603Z,6.15
2022-12-16T03:05:36.734Z,6.78
2022-12-16T03:08:14.605Z,7.88
2022-12-16T03:10:51.248Z,7.20
2022-12-16T03:13:23.867Z,7.70
2022-12-16T03:16:00.449Z,7.40
2022-12-16T03:21:29.241Z,8.18
2022-12-16T03:24:03.205Z,8.20
2022-12-16T03:26:54.146Z,7.95
2022-12-16T03:29:34.943Z,7.47
2022-12-16T03:32:36.021Z,9.25
2022-12-16T03:38:16.148Z,7.93
2022-12-16T03:40:49.711Z,7.85
2022-12-16T03:43:22.900Z,7.65
2022-12-16T03:46:00.416Z,7.18
2022-12-16T03:48:33.745Z,7.50
2022-12-16T03:53:55.085Z,7.50
2022-12-16T03:56:26.989Z,6.57
2022-12-16T03:58:58.886Z,7.13
2022-12-16T04:01:31.088Z,7.00
2022-12-16T04:04:03.437Z,7.35
2022-12-16T04:06:35.449Z,7.28
2022-12-16T04:12:15.890Z,7.55
2022-12-16T04:15:06.280Z,7.25
2022-12-16T04:17:57.060Z,7.10
2022-12-16T04:21:12.604Z,7.60
2022-12-16T04:24:07.791Z,8.40
2022-12-16T04:26:58.488Z,7.75
2022-12-16T04:29:30.828Z,7.85
2022-12-16T04:32:02.753Z,8.20
2022-12-16T04:34:34.776Z,7.85
2022-12-16T04:37:25.241Z,7.63
2022-12-16T04:40:15.587Z,7.72
2022-12-16T04:47:06.548Z,8.10
2022-12-16T04:49:56.989Z,8.05
2022-12-16T04:52:47.254Z,7.20
2022-12-16T04:55:39.458Z,7.30
2022-12-16T05:01:38.380Z,7.20
2022-12-16T05:04:28.712Z,7.57
2022-12-16T05:07:19.149Z,7.95
2022-12-16T05:10:09.584Z,7.70
2022-12-16T05:13:00.079Z,7.55
2022-12-16T05:15:50.826Z,7.88
2022-12-16T05:18:41.207Z,7.07
2022-12-16T05:21:31.576Z,6.80
2022-12-16T05:24:21.974Z,6.90
2022-12-16T05:27:12.206Z,6.97
2022-12-16T05:30:02.593Z,7.18
2022-12-16T05:32:54.338Z,7.00
2022-12-16T05:35:46.056Z,6.45
2022-12-16T05:38:36.541Z,6.18
2022-12-16T05:41:26.753Z,5.93
2022-12-16T05:44:16.988Z,6.95
2022-12-16T05:47:07.390Z,7.57
2022-12-16T05:49:57.781Z,7.95
2022-12-16T05:52:48.043Z,7.82
2022-12-16T05:55:38.523Z,7.30
2022-12-16T05:58:29.214Z,7.95
2022-12-16T06:01:19.843Z,9.25
2022-12-16T06:04:15.607Z,9.25
2022-12-16T06:07:08.125Z,9.63
2022-12-16T06:09:58.473Z,9.48
2022-12-16T06:12:49.228Z,10.52
2022-12-16T06:15:39.600Z,11.18
2022-12-16T06:18:29.940Z,11.23
2022-12-16T06:21:20.206Z,10.77
2022-12-16T06:24:10.480Z,10.70
2022-12-16T06:27:00.738Z,10.35
2022-12-16T06:29:51.124Z,10.82
2022-12-16T06:32:41.585Z,12.40
2022-12-16T06:35:31.993Z,10.70
2022-12-16T06:38:22.288Z,10.82
2022-12-16T06:41:12.574Z,11.23
2022-12-16T06:44:03.009Z,13.90
2022-12-16T06:46:53.217Z,11.90
2022-12-16T06:49:43.685Z,11.70
2022-12-16T06:52:34.051Z,10.32
2022-12-16T06:55:24.695Z,11.95
2022-12-16T06:58:17.094Z,29.88
2022-12-16T07:01:07.648Z,14.30
2022-12-16T07:03:58.186Z,11.32
2022-12-16T07:06:48.948Z,11.40
2022-12-16T07:09:39.223Z,43.10
2022-12-16T07:12:29.860Z,16.92
2022-12-16T07:15:20.193Z,18.65
2022-12-16T07:18:10.857Z,12.10
2022-12-16T07:21:01.291Z,10.90
2022-12-16T07:23:51.465Z,11.57
2022-12-16T07:26:42.934Z,11.10
2022-12-16T07:29:33.292Z,12.43
2022-12-16T07:32:23.790Z,11.25
2022-12-16T07:35:13.980Z,11.88
2022-12-16T07:38:04.318Z,13.13
2022-12-16T07:40:54.806Z,14.20
2022-12-16T07:43:46.015Z,13.65
2022-12-16T07:46:36.325Z,15.68
2022-12-16T07:49:26.712Z,16.15
2022-12-16T07:52:17.269Z,16.50
2022-12-16T07:55:07.637Z,15.88
2022-12-16T07:57:59.138Z,16.38
2022-12-16T08:00:49.458Z,17.60
2022-12-16T08:03:39.913Z,18.98
2022-12-16T08:06:30.441Z,17.45
2022-12-16T08:09:20.838Z,18.50
2022-12-16T08:12:11.315Z,19.30
2022-12-16T08:15:01.684Z,17.65
2022-12-16T08:17:52.487Z,19.38
2022-12-16T08:20:43.058Z,17.03
2022-12-16T08:23:33.713Z,21.50
2022-12-16T08:26:24.313Z,19.93
2022-12-16T08:29:42.520Z,19.70
2022-12-16T08:32:25.447Z,18.80
2022-12-16T08:35:16.046Z,18.17
2022-12-16T08:38:12.261Z,17.80
2022-12-16T08:41:04.502Z,17.38
2022-12-16T08:43:55.428Z,17.05
2022-12-16T08:46:45.865Z,16.60
2022-12-16T08:49:36.225Z,20.48
2022-12-16T08:52:26.687Z,17.40
2022-12-16T08:55:16.997Z,19.70
2022-12-16T08:58:14.227Z,15.57
2022-12-16T09:01:07.570Z,16.63
2022-12-16T09:03:58.798Z,15.10
2022-12-16T09:06:49.267Z,16.35
2022-12-16T09:09:39.712Z,16.15
2022-12-16T09:12:30.339Z,16.25
2022-12-16T09:15:20.673Z,13.63
2022-12-16T09:18:15.026Z,13.18
2022-12-16T09:21:05.486Z,12.15
2022-12-16T09:23:56.240Z,12.90
2022-12-16T09:26:48.418Z,12.10
2022-12-16T09:29:43.441Z,11.73
2022-12-16T09:32:42.925Z,11.95
2022-12-16T09:35:33.457Z,11.70
2022-12-16T09:38:24.080Z,11.68
2022-12-16T09:41:14.466Z,11.95
2022-12-16T09:44:24.442Z,13.73
2022-12-16T09:47:29.586Z,13.50
2022-12-16T09:50:20.236Z,12.32
2022-12-16T09:53:24.457Z,12.30
2022-12-16T09:56:16.389Z,12.63
2022-12-16T09:59:15.298Z,12.20
2022-12-16T10:02:13.750Z,10.88
2022-12-16T10:05:09.904Z,9.43
2022-12-16T10:08:19.408Z,9.38
2022-12-16T10:11:30.192Z,10.15
2022-12-16T10:14:40.226Z,10.60
2022-12-16T10:17:56.580Z,10.32
2022-12-16T10:21:01.885Z,11.63
2022-12-16T10:24:06.486Z,11.35
2022-12-16T10:27:19.673Z,14.00
2022-12-16T10:30:10.162Z,14.73
2022-12-16T10:33:05.480Z,9.68
2022-12-16T10:36:08.056Z,16.40
2022-12-16T10:39:19.568Z,11.27
2022-12-16T10:42:12.402Z,8.55
2022-12-16T10:45:15.829Z,14.23
2022-12-16T10:48:06.703Z,14.38
2022-12-16T10:50:57.328Z,13.87
2022-12-16T10:53:48.741Z,13.75
2022-12-16T10:57:20.795Z,14.77
2022-12-16T11:00:26.550Z,16.45
2022-12-16T11:03:42.765Z,16.58
2022-12-16T11:06:55.952Z,14.80
2022-12-16T11:09:52.781Z,15.02
2022-12-16T11:12:48.652Z,15.55
2022-12-16T11:15:41.924Z,15.65
2022-12-16T11:18:41.022Z,16.38
2022-12-16T11:21:37.351Z,19.50
2022-12-16T11:24:37.020Z,24.60
2022-12-16T11:27:40.738Z,26.58
2022-12-16T11:30:41.123Z,29.10
2022-12-16T11:33:44.421Z,29.83
2022-12-16T11:36:42.966Z,38.35
2022-12-16T11:39:40.559Z,29.52
2022-12-16T11:42:41.260Z,30.45
2022-12-16T11:45:34.482Z,27.98
2022-12-16T11:49:02.828Z,30.08
2022-12-16T11:52:08.098Z,27.88
2022-12-16T11:55:41.703Z,32.17
2022-12-16T11:58:38.039Z,29.15
2022-12-16T12:01:44.906Z,31.70
2022-12-16T12:04:36.518Z,29.05
2022-12-16T12:07:27.103Z,27.83
2022-12-16T12:10:32.673Z,25.27
2022-12-16T12:13:34.117Z,30.15
2022-12-16T12:16:32.653Z,28.10
2022-12-16T12:19:48.878Z,24.15
2022-12-16T12:22:39.176Z,25.23
2022-12-16T12:25:41.304Z,26.08
2022-12-16T12:28:52.569Z,28.98
2022-12-16T12:32:06.457Z,28.30
2022-12-16T12:35:08.971Z,29.15
2022-12-16T12:38:42.774Z,28.83
2022-12-16T12:41:47.190Z,26.90
2022-12-16T12:44:48.597Z,29.08
2022-12-16T12:47:40.967Z,29.88
2022-12-16T12:50:41.252Z,27.70
2022-12-16T12:53:50.702Z,27.13
2022-12-16T12:57:07.471Z,27.80
2022-12-16T13:00:35.040Z,28.38
2022-12-16T13:03:47.490Z,28.67
2022-12-16T13:06:39.074Z,31.42
2022-12-16T13:09:44.943Z,28.15
2022-12-16T13:12:35.297Z,26.20
2022-12-16T13:15:56.722Z,28.35
2022-12-16T13:18:49.041Z,33.03
2022-12-16T13:21:58.247Z,40.22
2022-12-16T13:24:56.904Z,35.45
2022-12-16T13:27:49.496Z,31.90
2022-12-16T13:30:43.028Z,32.92
2022-12-16T13:33:43.144Z,34.95
2022-12-16T13:36:36.249Z,31.67
2022-12-16T13:39:53.393Z,34.10
2022-12-16T13:42:58.920Z,269.65
2022-12-16T13:45:52.984Z,36.47
2022-12-16T13:48:58.018Z,37.78
2022-12-16T13:51:57.610Z,39.17
2022-12-16T13:55:08.825Z,33.40
2022-12-16T13:58:02.198Z,37.92
2022-12-16T14:00:57.092Z,40.13
2022-12-16T14:04:07.062Z,40.80
2022-12-16T14:06:58.930Z,34.95
2022-12-16T14:09:51.660Z,37.88
2022-12-16T14:12:51.180Z,46.80
2022-12-16T14:15:51.669Z,36.75
2022-12-16T14:19:09.205Z,38.10
2022-12-16T14:22:09.066Z,36.65
2022-12-16T14:24:59.474Z,35.55
2022-12-16T14:27:53.360Z,48.00
2022-12-16T14:30:45.052Z,36.75
2022-12-16T14:36:47.214Z,45.20
2022-12-16T14:39:45.208Z,36.17
2022-12-16T14:42:43.524Z,53.15
2022-12-16T14:45:52.032Z,42.10
2022-12-16T14:48:52.500Z,44.33
2022-12-16T14:51:49.768Z,50.35
2022-12-16T14:54:57.064Z,41.20
2022-12-16T14:57:50.193Z,57.30
2022-12-16T15:00:42.528Z,42.78
2022-12-16T15:03:37.706Z,57.83
2022-12-16T15:06:39.193Z,76.22
2022-12-16T15:09:56.861Z,65.60
2022-12-16T15:12:53.453Z,67.22
2022-12-16T15:15:51.656Z,62.28
2022-12-16T15:18:51.555Z,54.97
2022-12-16T15:21:41.916Z,56.13
2022-12-16T15:24:39.836Z,64.45
2022-12-16T15:27:41.226Z,67.50
2022-12-16T15:30:53.191Z,56.15
2022-12-16T15:33:51.807Z,58.00
2022-12-16T15:36:48.382Z,54.20
2022-12-16T15:40:00.256Z,61.55
2022-12-16T15:42:52.357Z,55.47
2022-12-16T15:45:49.325Z,62.63
2022-12-16T15:48:52.840Z,89.30
2022-12-16T15:52:04.563Z,55.20
2022-12-16T15:55:10.433Z,56.30
2022-12-16T15:58:13.919Z,61.75
2022-12-16T16:01:18.123Z,55.10
2022-12-16T16:04:10.626Z,64.03
2022-12-16T16:07:07.187Z,62.22
2022-12-16T16:09:58.223Z,60.83
2022-12-16T16:12:48.577Z,55.50
2022-12-16T16:15:38.928Z,53.33
2022-12-16T16:18:29.944Z,61.70
2022-12-16T16:21:20.260Z,47.55
2022-12-16T16:24:10.572Z,45.08
2022-12-16T16:27:00.984Z,43.08
2022-12-16T16:29:51.594Z,41.10
2022-12-16T16:32:42.087Z,41.88
2022-12-16T16:35:32.689Z,38.60
2022-12-16T16:38:23.026Z,41.83
2022-12-16T16:41:13.634Z,41.33
2022-12-16T16:44:04.343Z,43.22
2022-12-16T16:47:00.943Z,47.63
2022-12-16T16:50:01.130Z,48.88
2022-12-16T16:52:51.956Z,43.20
2022-12-16T16:55:43.675Z,45.70
2022-12-16T17:01:44.753Z,52.55
2022-12-16T17:04:35.720Z,55.72
2022-12-16T17:07:26.470Z,62.90
2022-12-16T17:10:18.063Z,63.33
2022-12-16T17:13:09.952Z,55.72
2022-12-16T17:16:00.456Z,56.17
2022-12-16T17:18:52.515Z,58.72
2022-12-16T17:21:43.370Z,46.92
2022-12-16T17:24:33.701Z,51.35
2022-12-16T17:27:35.724Z,63.42
2022-12-16T17:30:33.527Z,59.28
2022-12-16T17:33:24.213Z,53.20
2022-12-16T17:36:14.392Z,50.35
2022-12-16T17:39:05.321Z,54.13
2022-12-16T17:41:55.670Z,54.42
2022-12-16T17:44:46.564Z,55.72
2022-12-16T17:47:37.760Z,58.58
2022-12-16T17:50:29.165Z,54.00
2022-12-16T17:53:19.751Z,53.33
2022-12-16T17:56:10.232Z,57.53
2022-12-16T17:59:00.430Z,59.63
2022-12-16T18:01:50.943Z,53.15
2022-12-16T18:04:41.324Z,58.40
2022-12-16T18:07:31.600Z,56.00
2022-12-16T18:10:21.926Z,45.72
2022-12-16T18:13:14.262Z,50.83
2022-12-16T18:16:10.509Z,47.00
2022-12-16T18:19:00.766Z,46.30
2022-12-16T18:21:51.075Z,48.45
2022-12-16T18:24:48.085Z,48.80
2022-12-16T18:27:38.866Z,42.20
2022-12-16T18:30:29.780Z,49.47
2022-12-16T18:33:20.456Z,39.93
2022-12-16T18:36:10.655Z,36.60
2022-12-16T18:39:00.901Z,43.20
2022-12-16T18:41:51.281Z,42.17
2022-12-16T18:44:41.549Z,42.95
2022-12-16T18:47:31.899Z,56.22
2022-12-16T18:50:28.547Z,69.18
2022-12-16T18:53:20.962Z,70.93
2022-12-16T18:56:32.961Z,72.65
2022-12-16T19:02:13.564Z,72.70
2022-12-16T19:05:04.049Z,64.13
2022-12-16T19:07:54.397Z,62.03
2022-12-16T19:10:44.605Z,51.35
2022-12-16T19:13:35.221Z,58.15
2022-12-16T19:16:25.549Z,54.58
2022-12-16T19:19:19.819Z,49.13
2022-12-16T19:22:10.399Z,56.83
2022-12-16T19:25:00.726Z,51.05
2022-12-16T19:27:51.145Z,61.22
2022-12-16T19:30:42.416Z,62.10
2022-12-16T19:33:33.313Z,60.33
2022-12-16T19:36:23.747Z,63.77
2022-12-16T19:39:14.153Z,55.47
2022-12-16T19:42:04.450Z,64.78
2022-12-16T19:44:54.734Z,56.35
2022-12-16T19:50:36.844Z,53.17
2022-12-16T19:53:27.455Z,52.17
2022-12-16T19:56:19.245Z,54.70
2022-12-16T20:02:00.194Z,55.15
2022-12-16T20:04:50.957Z,53.72
2022-12-16T20:07:42.908Z,57.08
2022-12-16T20:10:33.641Z,57.03
2022-12-16T20:13:30.302Z,61.50
2022-12-16T20:16:22.140Z,59.95
2022-12-16T20:22:06.892Z,50.45
2022-12-16T20:24:58.817Z,47.72
2022-12-16T20:27:49.447Z,47.13
2022-12-16T20:30:39.862Z,48.60
2022-12-16T20:33:32.299Z,50.38
2022-12-16T20:36:24.601Z,52.75
2022-12-16T20:39:18.459Z,46.00
2022-12-16T20:42:08.806Z,49.85
2022-12-16T20:45:00.280Z,45.90
2022-12-16T20:47:50.876Z,50.05
2022-12-16T20:50:42.224Z,53.67
2022-12-16T20:53:32.646Z,49.28
2022-12-16T20:56:23.176Z,54.65
2022-12-16T20:59:13.562Z,49.30
2022-12-16T21:05:14.309Z,55.70
2022-12-16T21:08:04.813Z,62.60
2022-12-16T21:10:56.308Z,68.72
2022-12-16T21:13:47.359Z,62.92
2022-12-16T21:16:38.197Z,64.28
2022-12-16T21:19:33.264Z,71.30
2022-12-16T21:22:24.262Z,72.22
2022-12-16T21:25:24.363Z,57.97
2022-12-16T21:28:18.253Z,57.78
2022-12-16T21:31:08.677Z,66.85
2022-12-16T21:34:00.082Z,57.60
2022-12-16T21:36:50.740Z,62.05
2022-12-16T21:45:45.502Z,65.35
2022-12-16T21:48:35.807Z,57.20
2022-12-16T21:51:26.183Z,59.95
2022-12-16T21:54:16.725Z,60.20
2022-12-16T21:57:07.761Z,58.83
2022-12-16T21:59:58.406Z,66.78
2022-12-16T22:02:48.869Z,70.00
2022-12-16T22:05:42.341Z,64.85
2022-12-16T22:08:32.939Z,72.18
2022-12-16T22:11:31.158Z,77.13
2022-12-16T22:14:21.974Z,67.75
2022-12-16T22:17:12.338Z,87.10
2022-12-16T22:20:03.100Z,71.22
2022-12-16T22:22:54.705Z,79.47
2022-12-16T22:25:46.902Z,82.38
2022-12-16T22:28:37.825Z,73.30
2022-12-16T22:31:30.254Z,70.15
2022-12-16T22:34:20.788Z,72.28
2022-12-16T22:37:10.952Z,74.70
2022-12-16T22:40:01.474Z,72.20
2022-12-16T22:42:52.117Z,62.10
2022-12-16T22:45:42.534Z,62.88
2022-12-16T22:48:32.982Z,67.40
2022-12-16T22:51:28.957Z,61.85
2022-12-16T22:54:19.908Z,58.15
2022-12-16T22:57:10.520Z,59.55
2022-12-16T23:00:00.917Z,66.00
2022-12-16T23:02:51.291Z,59.53
2022-12-16T23:05:42.724Z,58.13
2022-12-16T23:08:32.989Z,55.67
2022-12-16T23:11:23.617Z,60.58
2022-12-16T23:14:13.853Z,63.58
2022-12-16T23:17:04.225Z,61.40
2022-12-16T23:19:56.411Z,62.00
2022-12-16T23:22:47.066Z,56.45
2022-12-16T23:25:37.767Z,69.00
2022-12-16T23:28:28.311Z,62.95
2022-12-16T23:31:18.770Z,80.40
2022-12-16T23:34:09.575Z,68.50
2022-12-16T23:37:00.538Z,77.82
2022-12-16T23:39:50.914Z,65.32
2022-12-16T23:42:42.292Z,59.65
2022-12-16T23:45:32.649Z,95.93
2022-12-16T23:48:26.002Z,198.20
2022-12-16T23:51:16.681Z,59.53
2022-12-16T23:54:07.388Z,85.43
2022-12-16T23:56:57.815Z,70.25
2022-12-16T23:59:48.015Z,70.65
